sensor_id;sensor_type;location;lat;lon;timestamp;P1;durP1;ratioP1;P2;durP2;ratioP2
50309;SDS011;36207;51.850;21.698;2024-03-22T00:01:53;30.40;;;18.00;;
50309;SDS011;36207;51.850;21.698;2024-03-22T00:04:19;32.20;;;17.80;;
50309;SDS011;36207;51.850;21.698;2024-03-22T00:06:46;30.40;;;17.40;;
50309;SDS011;36207;51.850;21.698;2024-03-22T00:09:13;32.40;;;17.60;;
50309;SDS011;36207;51.850;21.698;2024-03-22T00:11:40;31.00;;;17.80;;
50309;SDS011;36207;51.850;21.698;2024-03-22T00:14:07;31.00;;;17.20;;
50309;SDS011;36207;51.850;21.698;2024-03-22T00:16:33;32.50;;;17.70;;
50309;SDS011;36207;51.850;21.698;2024-03-22T00:18:59;31.10;;;18.50;;
50309;SDS011;36207;51.850;21.698;2024-03-22T00:21:25;29.90;;;17.20;;
50309;SDS011;36207;51.850;21.698;2024-03-22T00:23:51;33.70;;;17.90;;
50309;SDS011;36207;51.850;21.698;2024-03-22T00:26:17;31.10;;;17.50;;
50309;SDS011;36207;51.850;21.698;2024-03-22T00:28:43;32.50;;;18.00;;
50309;SDS011;36207;51.850;21.698;2024-03-22T00:31:09;34.60;;;18.80;;
50309;SDS011;36207;51.850;21.698;2024-03-22T00:33:35;32.20;;;18.60;;
50309;SDS011;36207;51.850;21.698;2024-03-22T00:36:01;32.50;;;18.40;;
50309;SDS011;36207;51.850;21.698;2024-03-22T00:38:27;34.30;;;19.30;;
50309;SDS011;36207;51.850;21.698;2024-03-22T00:40:53;33.10;;;18.00;;
50309;SDS011;36207;51.850;21.698;2024-03-22T00:43:19;33.20;;;19.00;;
50309;SDS011;36207;51.850;21.698;2024-03-22T00:45:46;34.00;;;18.90;;
50309;SDS011;36207;51.850;21.698;2024-03-22T00:48:12;35.40;;;19.50;;
50309;SDS011;36207;51.850;21.698;2024-03-22T00:50:38;31.80;;;19.10;;
50309;SDS011;36207;51.850;21.698;2024-03-22T00:53:04;35.10;;;19.20;;
50309;SDS011;36207;51.850;21.698;2024-03-22T00:55:31;35.60;;;19.80;;
50309;SDS011;36207;51.850;21.698;2024-03-22T00:57:58;35.80;;;19.10;;
50309;SDS011;36207;51.850;21.698;2024-03-22T01:00:23;33.00;;;19.40;;
50309;SDS011;36207;51.850;21.698;2024-03-22T01:02:50;35.00;;;19.80;;
50309;SDS011;36207;51.850;21.698;2024-03-22T01:05:16;35.40;;;19.20;;
50309;SDS011;36207;51.850;21.698;2024-03-22T01:07:43;34.20;;;19.70;;
50309;SDS011;36207;51.850;21.698;2024-03-22T01:10:12;33.40;;;19.60;;
50309;SDS011;36207;51.850;21.698;2024-03-22T01:12:39;37.40;;;20.20;;
50309;SDS011;36207;51.850;21.698;2024-03-22T01:15:05;39.20;;;21.00;;
50309;SDS011;36207;51.850;21.698;2024-03-22T01:17:33;39.50;;;21.60;;
50309;SDS011;36207;51.850;21.698;2024-03-22T01:19:59;37.40;;;20.70;;
50309;SDS011;36207;51.850;21.698;2024-03-22T01:22:25;33.40;;;20.40;;
50309;SDS011;36207;51.850;21.698;2024-03-22T01:24:51;37.60;;;20.90;;
50309;SDS011;36207;51.850;21.698;2024-03-22T01:27:19;35.40;;;20.30;;
50309;SDS011;36207;51.850;21.698;2024-03-22T01:29:45;33.40;;;19.60;;
50309;SDS011;36207;51.850;21.698;2024-03-22T01:32:12;33.90;;;20.30;;
50309;SDS011;36207;51.850;21.698;2024-03-22T01:34:39;35.30;;;20.90;;
50309;SDS011;36207;51.850;21.698;2024-03-22T01:37:05;36.60;;;21.30;;
50309;SDS011;36207;51.850;21.698;2024-03-22T01:39:31;36.50;;;21.30;;
50309;SDS011;36207;51.850;21.698;2024-03-22T01:41:57;40.60;;;22.60;;
50309;SDS011;36207;51.850;21.698;2024-03-22T01:44:27;42.40;;;22.00;;
50309;SDS011;36207;51.850;21.698;2024-03-22T01:46:53;38.20;;;22.80;;
50309;SDS011;36207;51.850;21.698;2024-03-22T01:49:20;39.10;;;23.10;;
50309;SDS011;36207;51.850;21.698;2024-03-22T01:51:47;40.60;;;22.30;;
50309;SDS011;36207;51.850;21.698;2024-03-22T01:54:13;43.10;;;22.90;;
50309;SDS011;36207;51.850;21.698;2024-03-22T01:56:41;37.60;;;21.90;;
50309;SDS011;36207;51.850;21.698;2024-03-22T01:59:08;42.10;;;23.00;;
50309;SDS011;36207;51.850;21.698;2024-03-22T02:01:35;39.70;;;22.30;;
50309;SDS011;36207;51.850;21.698;2024-03-22T02:04:01;43.50;;;24.70;;
50309;SDS011;36207;51.850;21.698;2024-03-22T02:06:27;42.50;;;24.00;;
50309;SDS011;36207;51.850;21.698;2024-03-22T02:08:53;40.60;;;23.20;;
50309;SDS011;36207;51.850;21.698;2024-03-22T02:11:19;42.80;;;23.70;;
50309;SDS011;36207;51.850;21.698;2024-03-22T02:13:46;42.90;;;24.80;;
50309;SDS011;36207;51.850;21.698;2024-03-22T02:16:12;40.40;;;23.60;;
50309;SDS011;36207;51.850;21.698;2024-03-22T02:18:37;43.00;;;24.60;;
50309;SDS011;36207;51.850;21.698;2024-03-22T02:21:03;40.50;;;24.00;;
50309;SDS011;36207;51.850;21.698;2024-03-22T02:23:36;42.60;;;24.80;;
50309;SDS011;36207;51.850;21.698;2024-03-22T02:26:03;40.30;;;23.50;;
50309;SDS011;36207;51.850;21.698;2024-03-22T02:28:30;40.70;;;23.00;;
50309;SDS011;36207;51.850;21.698;2024-03-22T02:30:58;41.90;;;24.30;;
50309;SDS011;36207;51.850;21.698;2024-03-22T02:33:25;46.80;;;24.20;;
50309;SDS011;36207;51.850;21.698;2024-03-22T02:35:51;43.40;;;25.20;;
50309;SDS011;36207;51.850;21.698;2024-03-22T02:38:17;42.00;;;25.10;;
50309;SDS011;36207;51.850;21.698;2024-03-22T02:40:44;39.80;;;23.90;;
50309;SDS011;36207;51.850;21.698;2024-03-22T02:43:11;40.60;;;23.50;;
50309;SDS011;36207;51.850;21.698;2024-03-22T02:45:37;42.30;;;24.20;;
50309;SDS011;36207;51.850;21.698;2024-03-22T02:48:03;41.80;;;24.80;;
50309;SDS011;36207;51.850;21.698;2024-03-22T02:50:34;45.90;;;25.50;;
50309;SDS011;36207;51.850;21.698;2024-03-22T02:53:01;42.40;;;24.50;;
50309;SDS011;36207;51.850;21.698;2024-03-22T02:55:27;39.90;;;24.20;;
50309;SDS011;36207;51.850;21.698;2024-03-22T02:57:53;40.80;;;25.30;;
50309;SDS011;36207;51.850;21.698;2024-03-22T03:00:21;43.30;;;25.80;;
50309;SDS011;36207;51.850;21.698;2024-03-22T03:02:47;46.90;;;26.80;;
50309;SDS011;36207;51.850;21.698;2024-03-22T03:05:13;41.50;;;25.70;;
50309;SDS011;36207;51.850;21.698;2024-03-22T03:07:39;44.80;;;25.70;;
50309;SDS011;36207;51.850;21.698;2024-03-22T03:10:06;44.30;;;26.30;;
50309;SDS011;36207;51.850;21.698;2024-03-22T03:12:33;40.50;;;25.70;;
50309;SDS011;36207;51.850;21.698;2024-03-22T03:14:58;43.40;;;25.90;;
50309;SDS011;36207;51.850;21.698;2024-03-22T03:17:25;43.50;;;25.60;;
50309;SDS011;36207;51.850;21.698;2024-03-22T03:19:51;44.80;;;26.40;;
50309;SDS011;36207;51.850;21.698;2024-03-22T03:22:16;47.90;;;27.40;;
50309;SDS011;36207;51.850;21.698;2024-03-22T03:24:43;50.80;;;26.80;;
50309;SDS011;36207;51.850;21.698;2024-03-22T03:27:09;43.20;;;26.90;;
50309;SDS011;36207;51.850;21.698;2024-03-22T03:29:35;46.30;;;26.90;;
50309;SDS011;36207;51.850;21.698;2024-03-22T03:32:01;49.40;;;27.90;;
50309;SDS011;36207;51.850;21.698;2024-03-22T03:34:27;47.90;;;27.60;;
50309;SDS011;36207;51.850;21.698;2024-03-22T03:36:53;46.00;;;26.20;;
50309;SDS011;36207;51.850;21.698;2024-03-22T03:39:18;47.00;;;27.70;;
50309;SDS011;36207;51.850;21.698;2024-03-22T03:41:44;59.00;;;28.70;;
50309;SDS011;36207;51.850;21.698;2024-03-22T03:44:10;51.70;;;29.70;;
50309;SDS011;36207;51.850;21.698;2024-03-22T03:46:36;54.90;;;30.10;;
50309;SDS011;36207;51.850;21.698;2024-03-22T03:49:02;58.20;;;30.80;;
50309;SDS011;36207;51.850;21.698;2024-03-22T03:51:27;56.80;;;31.10;;
50309;SDS011;36207;51.850;21.698;2024-03-22T03:53:53;62.20;;;32.40;;
50309;SDS011;36207;51.850;21.698;2024-03-22T03:56:19;59.50;;;31.60;;
50309;SDS011;36207;51.850;21.698;2024-03-22T03:58:46;56.30;;;31.10;;
50309;SDS011;36207;51.850;21.698;2024-03-22T04:01:12;59.70;;;32.30;;
50309;SDS011;36207;51.850;21.698;2024-03-22T04:03:38;61.50;;;31.30;;
50309;SDS011;36207;51.850;21.698;2024-03-22T04:06:05;57.10;;;31.90;;
50309;SDS011;36207;51.850;21.698;2024-03-22T04:08:30;59.40;;;32.20;;
50309;SDS011;36207;51.850;21.698;2024-03-22T04:10:57;62.60;;;32.00;;
50309;SDS011;36207;51.850;21.698;2024-03-22T04:13:23;62.60;;;33.80;;
50309;SDS011;36207;51.850;21.698;2024-03-22T04:15:53;60.90;;;32.70;;
50309;SDS011;36207;51.850;21.698;2024-03-22T04:18:19;65.00;;;33.50;;
50309;SDS011;36207;51.850;21.698;2024-03-22T04:20:58;61.00;;;32.20;;
50309;SDS011;36207;51.850;21.698;2024-03-22T04:23:25;61.60;;;34.10;;
50309;SDS011;36207;51.850;21.698;2024-03-22T04:25:55;66.70;;;34.50;;
50309;SDS011;36207;51.850;21.698;2024-03-22T04:28:22;56.80;;;31.90;;
50309;SDS011;36207;51.850;21.698;2024-03-22T04:33:26;62.20;;;32.10;;
50309;SDS011;36207;51.850;21.698;2024-03-22T04:35:53;57.10;;;30.90;;
50309;SDS011;36207;51.850;21.698;2024-03-22T04:38:19;64.40;;;32.10;;
50309;SDS011;36207;51.850;21.698;2024-03-22T04:40:45;58.70;;;33.00;;
50309;SDS011;36207;51.850;21.698;2024-03-22T04:43:11;77.20;;;34.90;;
50309;SDS011;36207;51.850;21.698;2024-03-22T04:45:37;63.40;;;34.00;;
50309;SDS011;36207;51.850;21.698;2024-03-22T04:48:04;64.10;;;33.70;;
50309;SDS011;36207;51.850;21.698;2024-03-22T04:50:30;67.20;;;33.50;;
50309;SDS011;36207;51.850;21.698;2024-03-22T04:52:57;62.70;;;34.00;;
50309;SDS011;36207;51.850;21.698;2024-03-22T04:55:23;62.70;;;33.70;;
50309;SDS011;36207;51.850;21.698;2024-03-22T04:57:49;62.40;;;34.50;;
50309;SDS011;36207;51.850;21.698;2024-03-22T05:00:15;71.00;;;35.90;;
50309;SDS011;36207;51.850;21.698;2024-03-22T05:02:42;76.60;;;35.30;;
50309;SDS011;36207;51.850;21.698;2024-03-22T05:05:08;67.10;;;33.90;;
50309;SDS011;36207;51.850;21.698;2024-03-22T05:07:34;65.40;;;31.60;;
50309;SDS011;36207;51.850;21.698;2024-03-22T05:10:00;66.40;;;31.70;;
50309;SDS011;36207;51.850;21.698;2024-03-22T05:12:26;63.00;;;32.70;;
50309;SDS011;36207;51.850;21.698;2024-03-22T05:14:51;59.30;;;32.00;;
50309;SDS011;36207;51.850;21.698;2024-03-22T05:17:17;62.20;;;31.20;;
50309;SDS011;36207;51.850;21.698;2024-03-22T05:19:43;61.80;;;32.00;;
50309;SDS011;36207;51.850;21.698;2024-03-22T05:22:09;70.20;;;32.70;;
50309;SDS011;36207;51.850;21.698;2024-03-22T05:24:35;65.50;;;32.30;;
50309;SDS011;36207;51.850;21.698;2024-03-22T05:27:00;64.00;;;32.10;;
50309;SDS011;36207;51.850;21.698;2024-03-22T05:29:26;65.50;;;32.30;;
50309;SDS011;36207;51.850;21.698;2024-03-22T05:31:52;57.20;;;31.00;;
50309;SDS011;36207;51.850;21.698;2024-03-22T05:34:18;59.80;;;32.70;;
50309;SDS011;36207;51.850;21.698;2024-03-22T05:36:48;50.80;;;30.70;;
50309;SDS011;36207;51.850;21.698;2024-03-22T05:39:14;53.40;;;30.60;;
50309;SDS011;36207;51.850;21.698;2024-03-22T05:41:40;53.30;;;31.80;;
50309;SDS011;36207;51.850;21.698;2024-03-22T05:44:08;54.90;;;32.90;;
50309;SDS011;36207;51.850;21.698;2024-03-22T05:46:34;54.70;;;32.50;;
50309;SDS011;36207;51.850;21.698;2024-03-22T05:49:00;54.20;;;32.60;;
50309;SDS011;36207;51.850;21.698;2024-03-22T05:51:26;53.90;;;32.00;;
50309;SDS011;36207;51.850;21.698;2024-03-22T05:53:52;51.40;;;30.60;;
50309;SDS011;36207;51.850;21.698;2024-03-22T05:56:18;47.30;;;29.00;;
50309;SDS011;36207;51.850;21.698;2024-03-22T05:58:45;41.70;;;27.60;;
50309;SDS011;36207;51.850;21.698;2024-03-22T06:01:11;45.80;;;26.80;;
50309;SDS011;36207;51.850;21.698;2024-03-22T06:03:36;40.60;;;26.30;;
50309;SDS011;36207;51.850;21.698;2024-03-22T06:06:03;42.10;;;25.40;;
50309;SDS011;36207;51.850;21.698;2024-03-22T06:08:30;38.10;;;24.80;;
50309;SDS011;36207;51.850;21.698;2024-03-22T06:11:00;37.80;;;24.00;;
50309;SDS011;36207;51.850;21.698;2024-03-22T06:13:26;37.60;;;24.20;;
50309;SDS011;36207;51.850;21.698;2024-03-22T06:15:52;39.70;;;24.80;;
50309;SDS011;36207;51.850;21.698;2024-03-22T06:18:18;39.00;;;24.30;;
50309;SDS011;36207;51.850;21.698;2024-03-22T06:20:44;39.50;;;25.40;;
50309;SDS011;36207;51.850;21.698;2024-03-22T06:23:10;41.70;;;25.40;;
50309;SDS011;36207;51.850;21.698;2024-03-22T06:25:36;40.30;;;25.70;;
50309;SDS011;36207;51.850;21.698;2024-03-22T06:28:02;40.80;;;25.80;;
50309;SDS011;36207;51.850;21.698;2024-03-22T06:30:28;42.60;;;26.40;;
50309;SDS011;36207;51.850;21.698;2024-03-22T06:32:54;42.60;;;26.70;;
50309;SDS011;36207;51.850;21.698;2024-03-22T06:35:20;46.40;;;26.80;;
50309;SDS011;36207;51.850;21.698;2024-03-22T06:37:47;45.80;;;28.40;;
50309;SDS011;36207;51.850;21.698;2024-03-22T06:40:14;46.40;;;27.90;;
50309;SDS011;36207;51.850;21.698;2024-03-22T06:42:40;43.10;;;27.00;;
50309;SDS011;36207;51.850;21.698;2024-03-22T06:45:06;48.70;;;29.20;;
50309;SDS011;36207;51.850;21.698;2024-03-22T06:47:32;46.00;;;28.50;;
50309;SDS011;36207;51.850;21.698;2024-03-22T06:49:59;47.50;;;29.40;;
50309;SDS011;36207;51.850;21.698;2024-03-22T06:52:25;47.50;;;28.20;;
50309;SDS011;36207;51.850;21.698;2024-03-22T06:54:51;49.40;;;29.40;;
50309;SDS011;36207;51.850;21.698;2024-03-22T06:57:17;51.60;;;30.30;;
50309;SDS011;36207;51.850;21.698;2024-03-22T06:59:43;49.70;;;28.50;;
50309;SDS011;36207;51.850;21.698;2024-03-22T07:02:09;48.30;;;29.00;;
50309;SDS011;36207;51.850;21.698;2024-03-22T07:04:35;47.90;;;28.50;;
50309;SDS011;36207;51.850;21.698;2024-03-22T07:07:01;48.80;;;28.20;;
50309;SDS011;36207;51.850;21.698;2024-03-22T07:09:27;48.30;;;29.50;;
50309;SDS011;36207;51.850;21.698;2024-03-22T07:11:57;52.60;;;29.50;;
50309;SDS011;36207;51.850;21.698;2024-03-22T07:14:23;50.40;;;28.40;;
50309;SDS011;36207;51.850;21.698;2024-03-22T07:16:50;49.20;;;29.00;;
50309;SDS011;36207;51.850;21.698;2024-03-22T07:19:22;51.80;;;30.10;;
50309;SDS011;36207;51.850;21.698;2024-03-22T07:21:48;52.20;;;28.90;;
50309;SDS011;36207;51.850;21.698;2024-03-22T07:24:13;52.00;;;29.40;;
50309;SDS011;36207;51.850;21.698;2024-03-22T07:26:39;49.90;;;28.50;;
50309;SDS011;36207;51.850;21.698;2024-03-22T07:29:06;50.20;;;28.70;;
50309;SDS011;36207;51.850;21.698;2024-03-22T07:31:32;51.10;;;29.70;;
50309;SDS011;36207;51.850;21.698;2024-03-22T07:33:58;54.10;;;29.90;;
50309;SDS011;36207;51.850;21.698;2024-03-22T07:36:24;53.20;;;29.60;;
50309;SDS011;36207;51.850;21.698;2024-03-22T07:38:50;53.40;;;30.40;;
50309;SDS011;36207;51.850;21.698;2024-03-22T07:41:16;53.90;;;29.10;;
50309;SDS011;36207;51.850;21.698;2024-03-22T07:43:42;53.00;;;29.10;;
50309;SDS011;36207;51.850;21.698;2024-03-22T07:46:08;52.20;;;29.70;;
50309;SDS011;36207;51.850;21.698;2024-03-22T07:48:35;52.40;;;28.60;;
50309;SDS011;36207;51.850;21.698;2024-03-22T07:51:01;53.30;;;28.70;;
50309;SDS011;36207;51.850;21.698;2024-03-22T07:53:27;55.60;;;28.10;;
50309;SDS011;36207;51.850;21.698;2024-03-22T07:55:53;53.60;;;28.40;;
50309;SDS011;36207;51.850;21.698;2024-03-22T07:58:19;56.70;;;29.20;;
50309;SDS011;36207;51.850;21.698;2024-03-22T08:00:45;54.00;;;29.50;;
50309;SDS011;36207;51.850;21.698;2024-03-22T10:02:50;35.60;;;22.10;;
50309;SDS011;36207;51.850;21.698;2024-03-22T10:05:17;32.70;;;20.90;;
50309;SDS011;36207;51.850;21.698;2024-03-22T10:07:43;33.50;;;20.80;;
50309;SDS011;36207;51.850;21.698;2024-03-22T10:10:10;33.20;;;19.70;;
50309;SDS011;36207;51.850;21.698;2024-03-22T10:12:37;32.70;;;20.10;;
50309;SDS011;36207;51.850;21.698;2024-03-22T10:15:05;33.80;;;19.90;;
50309;SDS011;36207;51.850;21.698;2024-03-22T10:17:34;33.20;;;20.60;;
50309;SDS011;36207;51.850;21.698;2024-03-22T10:20:00;31.90;;;20.00;;
50309;SDS011;36207;51.850;21.698;2024-03-22T10:22:26;32.90;;;20.40;;
50309;SDS011;36207;51.850;21.698;2024-03-22T10:24:53;36.70;;;21.10;;
50309;SDS011;36207;51.850;21.698;2024-03-22T10:27:18;34.10;;;21.00;;
50309;SDS011;36207;51.850;21.698;2024-03-22T10:29:45;36.50;;;22.30;;
50309;SDS011;36207;51.850;21.698;2024-03-22T10:32:12;33.80;;;21.20;;
50309;SDS011;36207;51.850;21.698;2024-03-22T10:34:39;39.30;;;21.60;;
50309;SDS011;36207;51.850;21.698;2024-03-22T10:37:07;32.10;;;19.20;;
50309;SDS011;36207;51.850;21.698;2024-03-22T10:39:36;29.20;;;18.40;;
50309;SDS011;36207;51.850;21.698;2024-03-22T10:42:04;31.30;;;19.30;;
50309;SDS011;36207;51.850;21.698;2024-03-22T10:44:30;28.90;;;18.00;;
50309;SDS011;36207;51.850;21.698;2024-03-22T10:46:56;29.80;;;18.80;;
50309;SDS011;36207;51.850;21.698;2024-03-22T10:49:26;29.30;;;18.90;;
50309;SDS011;36207;51.850;21.698;2024-03-22T10:51:59;29.50;;;18.70;;
50309;SDS011;36207;51.850;21.698;2024-03-22T10:54:28;27.30;;;17.90;;
50309;SDS011;36207;51.850;21.698;2024-03-22T10:56:59;28.90;;;18.00;;
50309;SDS011;36207;51.850;21.698;2024-03-22T10:59:26;28.60;;;17.60;;
50309;SDS011;36207;51.850;21.698;2024-03-22T11:01:52;29.10;;;16.80;;
50309;SDS011;36207;51.850;21.698;2024-03-22T11:04:21;26.20;;;16.70;;
50309;SDS011;36207;51.850;21.698;2024-03-22T11:06:52;24.90;;;16.40;;
50309;SDS011;36207;51.850;21.698;2024-03-22T11:09:18;24.10;;;15.50;;
50309;SDS011;36207;51.850;21.698;2024-03-22T11:11:47;25.60;;;16.00;;
50309;SDS011;36207;51.850;21.698;2024-03-22T11:14:13;27.00;;;16.80;;
50309;SDS011;36207;51.850;21.698;2024-03-22T11:16:42;24.30;;;15.20;;
50309;SDS011;36207;51.850;21.698;2024-03-22T11:19:11;24.60;;;16.50;;
50309;SDS011;36207;51.850;21.698;2024-03-22T11:21:38;22.00;;;13.90;;
50309;SDS011;36207;51.850;21.698;2024-03-22T11:24:04;22.30;;;14.60;;
50309;SDS011;36207;51.850;21.698;2024-03-22T11:26:34;23.10;;;13.90;;
50309;SDS011;36207;51.850;21.698;2024-03-22T11:29:00;21.30;;;14.10;;
50309;SDS011;36207;51.850;21.698;2024-03-22T11:31:26;24.30;;;14.50;;
50309;SDS011;36207;51.850;21.698;2024-03-22T11:33:56;21.50;;;13.80;;
50309;SDS011;36207;51.850;21.698;2024-03-22T11:36:22;22.10;;;14.10;;
50309;SDS011;36207;51.850;21.698;2024-03-22T11:38:49;23.90;;;14.40;;
50309;SDS011;36207;51.850;21.698;2024-03-22T11:41:16;24.90;;;14.50;;
50309;SDS011;36207;51.850;21.698;2024-03-22T11:43:45;22.80;;;14.20;;
50309;SDS011;36207;51.850;21.698;2024-03-22T11:46:14;22.50;;;14.80;;
50309;SDS011;36207;51.850;21.698;2024-03-22T11:48:41;20.50;;;13.90;;
50309;SDS011;36207;51.850;21.698;2024-03-22T11:51:07;21.40;;;14.00;;
50309;SDS011;36207;51.850;21.698;2024-03-22T11:53:37;21.10;;;14.00;;
50309;SDS011;36207;51.850;21.698;2024-03-22T11:56:03;22.00;;;13.80;;
50309;SDS011;36207;51.850;21.698;2024-03-22T11:58:30;23.00;;;14.80;;
50309;SDS011;36207;51.850;21.698;2024-03-22T12:00:56;21.30;;;14.50;;
50309;SDS011;36207;51.850;21.698;2024-03-22T12:03:23;21.80;;;14.30;;
50309;SDS011;36207;51.850;21.698;2024-03-22T12:05:49;19.70;;;13.40;;
50309;SDS011;36207;51.850;21.698;2024-03-22T12:08:17;19.70;;;13.80;;
50309;SDS011;36207;51.850;21.698;2024-03-22T12:10:44;21.70;;;15.00;;
50309;SDS011;36207;51.850;21.698;2024-03-22T12:13:09;20.40;;;14.00;;
50309;SDS011;36207;51.850;21.698;2024-03-22T12:15:35;21.90;;;14.70;;
50309;SDS011;36207;51.850;21.698;2024-03-22T12:18:02;23.20;;;14.50;;
50309;SDS011;36207;51.850;21.698;2024-03-22T12:20:28;22.20;;;14.30;;
50309;SDS011;36207;51.850;21.698;2024-03-22T12:22:55;20.60;;;14.20;;
50309;SDS011;36207;51.850;21.698;2024-03-22T12:25:22;21.50;;;14.60;;
50309;SDS011;36207;51.850;21.698;2024-03-22T12:27:47;23.30;;;14.00;;
50309;SDS011;36207;51.850;21.698;2024-03-22T12:30:13;22.90;;;14.30;;
50309;SDS011;36207;51.850;21.698;2024-03-22T12:32:40;21.20;;;14.50;;
50309;SDS011;36207;51.850;21.698;2024-03-22T12:35:07;22.10;;;14.10;;
50309;SDS011;36207;51.850;21.698;2024-03-22T12:37:33;21.20;;;14.40;;
50309;SDS011;36207;51.850;21.698;2024-03-22T12:39:59;22.10;;;14.40;;
50309;SDS011;36207;51.850;21.698;2024-03-22T12:42:25;23.90;;;14.40;;
50309;SDS011;36207;51.850;21.698;2024-03-22T12:44:51;22.30;;;15.10;;
50309;SDS011;36207;51.850;21.698;2024-03-22T12:47:17;22.40;;;14.10;;
50309;SDS011;36207;51.850;21.698;2024-03-22T12:49:43;23.50;;;14.70;;
50309;SDS011;36207;51.850;21.698;2024-03-22T12:52:10;22.20;;;14.80;;
50309;SDS011;36207;51.850;21.698;2024-03-22T12:54:36;20.80;;;14.30;;
50309;SDS011;36207;51.850;21.698;2024-03-22T12:57:02;21.80;;;15.30;;
50309;SDS011;36207;51.850;21.698;2024-03-22T12:59:28;20.30;;;14.30;;
50309;SDS011;36207;51.850;21.698;2024-03-22T13:01:54;23.40;;;14.90;;
50309;SDS011;36207;51.850;21.698;2024-03-22T13:04:20;22.50;;;15.40;;
50309;SDS011;36207;51.850;21.698;2024-03-22T13:06:46;22.50;;;14.80;;
50309;SDS011;36207;51.850;21.698;2024-03-22T13:09:12;21.90;;;14.20;;
50309;SDS011;36207;51.850;21.698;2024-03-22T13:11:38;21.80;;;14.60;;
50309;SDS011;36207;51.850;21.698;2024-03-22T13:14:06;20.00;;;14.30;;
50309;SDS011;36207;51.850;21.698;2024-03-22T13:16:32;20.60;;;14.90;;
50309;SDS011;36207;51.850;21.698;2024-03-22T13:18:58;22.20;;;14.60;;
50309;SDS011;36207;51.850;21.698;2024-03-22T13:21:24;20.20;;;14.30;;
50309;SDS011;36207;51.850;21.698;2024-03-22T13:23:50;19.40;;;13.80;;
50309;SDS011;36207;51.850;21.698;2024-03-22T13:26:16;17.40;;;12.80;;
50309;SDS011;36207;51.850;21.698;2024-03-22T13:28:42;19.50;;;14.10;;
50309;SDS011;36207;51.850;21.698;2024-03-22T13:31:09;22.60;;;13.80;;
50309;SDS011;36207;51.850;21.698;2024-03-22T13:33:35;18.80;;;13.50;;
50309;SDS011;36207;51.850;21.698;2024-03-22T13:36:01;18.50;;;13.50;;
50309;SDS011;36207;51.850;21.698;2024-03-22T13:38:29;18.90;;;13.90;;
50309;SDS011;36207;51.850;21.698;2024-03-22T13:40:58;19.30;;;13.00;;
50309;SDS011;36207;51.850;21.698;2024-03-22T13:43:26;18.70;;;13.00;;
50309;SDS011;36207;51.850;21.698;2024-03-22T13:45:53;17.00;;;12.20;;
50309;SDS011;36207;51.850;21.698;2024-03-22T13:48:22;17.70;;;12.30;;
50309;SDS011;36207;51.850;21.698;2024-03-22T13:50:56;17.80;;;12.80;;
50309;SDS011;36207;51.850;21.698;2024-03-22T13:55:49;18.20;;;13.00;;
50309;SDS011;36207;51.850;21.698;2024-03-22T13:58:16;18.50;;;12.50;;
50309;SDS011;36207;51.850;21.698;2024-03-22T14:00:42;18.10;;;12.70;;
50309;SDS011;36207;51.850;21.698;2024-03-22T14:03:08;16.30;;;12.40;;
50309;SDS011;36207;51.850;21.698;2024-03-22T14:05:34;16.90;;;12.40;;
50309;SDS011;36207;51.850;21.698;2024-03-22T14:08:00;17.60;;;12.70;;
50309;SDS011;36207;51.850;21.698;2024-03-22T14:10:26;20.00;;;12.80;;
50309;SDS011;36207;51.850;21.698;2024-03-22T14:12:57;17.20;;;12.70;;
50309;SDS011;36207;51.850;21.698;2024-03-22T14:15:23;16.70;;;12.20;;
50309;SDS011;36207;51.850;21.698;2024-03-22T14:17:52;17.20;;;12.40;;
50309;SDS011;36207;51.850;21.698;2024-03-22T14:20:18;16.20;;;11.90;;
50309;SDS011;36207;51.850;21.698;2024-03-22T14:22:44;16.80;;;12.20;;
50309;SDS011;36207;51.850;21.698;2024-03-22T14:25:11;16.20;;;12.10;;
50309;SDS011;36207;51.850;21.698;2024-03-22T14:27:38;17.00;;;12.30;;
50309;SDS011;36207;51.850;21.698;2024-03-22T14:30:04;16.80;;;11.90;;
50309;SDS011;36207;51.850;21.698;2024-03-22T14:32:33;17.30;;;11.60;;
50309;SDS011;36207;51.850;21.698;2024-03-22T14:34:59;15.20;;;11.50;;
50309;SDS011;36207;51.850;21.698;2024-03-22T14:37:26;16.70;;;11.60;;
50309;SDS011;36207;51.850;21.698;2024-03-22T14:39:52;16.50;;;11.70;;
50309;SDS011;36207;51.850;21.698;2024-03-22T14:42:18;16.70;;;11.80;;
50309;SDS011;36207;51.850;21.698;2024-03-22T14:44:44;16.00;;;11.90;;
50309;SDS011;36207;51.850;21.698;2024-03-22T14:47:10;16.40;;;11.80;;
50309;SDS011;36207;51.850;21.698;2024-03-22T14:49:37;16.40;;;12.20;;
50309;SDS011;36207;51.850;21.698;2024-03-22T14:52:03;17.50;;;12.30;;
50309;SDS011;36207;51.850;21.698;2024-03-22T14:54:29;16.40;;;11.80;;
50309;SDS011;36207;51.850;21.698;2024-03-22T14:56:56;18.70;;;12.60;;
50309;SDS011;36207;51.850;21.698;2024-03-22T14:59:22;18.30;;;13.40;;
50309;SDS011;36207;51.850;21.698;2024-03-22T15:01:48;19.40;;;13.10;;
50309;SDS011;36207;51.850;21.698;2024-03-22T15:04:14;16.50;;;12.30;;
50309;SDS011;36207;51.850;21.698;2024-03-22T15:06:45;17.90;;;13.30;;
50309;SDS011;36207;51.850;21.698;2024-03-22T15:09:13;19.50;;;13.90;;
50309;SDS011;36207;51.850;21.698;2024-03-22T15:11:39;20.00;;;13.30;;
50309;SDS011;36207;51.850;21.698;2024-03-22T15:14:04;31.60;;;17.20;;
50309;SDS011;36207;51.850;21.698;2024-03-22T15:16:31;18.80;;;13.30;;
50309;SDS011;36207;51.850;21.698;2024-03-22T15:18:57;16.70;;;12.90;;
50309;SDS011;36207;51.850;21.698;2024-03-22T15:21:23;21.60;;;13.70;;
50309;SDS011;36207;51.850;21.698;2024-03-22T15:23:48;17.40;;;13.20;;
50309;SDS011;36207;51.850;21.698;2024-03-22T15:26:14;17.80;;;13.30;;
50309;SDS011;36207;51.850;21.698;2024-03-22T15:28:40;18.90;;;13.40;;
50309;SDS011;36207;51.850;21.698;2024-03-22T15:31:06;20.20;;;14.20;;
50309;SDS011;36207;51.850;21.698;2024-03-22T15:33:32;18.60;;;13.60;;
50309;SDS011;36207;51.850;21.698;2024-03-22T15:35:58;21.90;;;13.50;;
50309;SDS011;36207;51.850;21.698;2024-03-22T15:38:24;22.60;;;15.20;;
50309;SDS011;36207;51.850;21.698;2024-03-22T15:40:50;29.10;;;18.20;;
50309;SDS011;36207;51.850;21.698;2024-03-22T15:43:17;23.00;;;16.20;;
50309;SDS011;36207;51.850;21.698;2024-03-22T15:45:43;35.50;;;20.50;;
50309;SDS011;36207;51.850;21.698;2024-03-22T15:48:09;45.60;;;23.90;;
50309;SDS011;36207;51.850;21.698;2024-03-22T15:50:35;37.70;;;19.50;;
50309;SDS011;36207;51.850;21.698;2024-03-22T15:53:02;30.20;;;18.30;;
50309;SDS011;36207;51.850;21.698;2024-03-22T15:55:28;32.80;;;19.90;;
50309;SDS011;36207;51.850;21.698;2024-03-22T15:57:57;29.50;;;18.80;;
50309;SDS011;36207;51.850;21.698;2024-03-22T16:00:23;31.40;;;20.10;;
50309;SDS011;36207;51.850;21.698;2024-03-22T16:02:56;24.10;;;17.40;;
50309;SDS011;36207;51.850;21.698;2024-03-22T16:05:23;29.40;;;18.50;;
50309;SDS011;36207;51.850;21.698;2024-03-22T16:07:51;27.00;;;18.40;;
50309;SDS011;36207;51.850;21.698;2024-03-22T16:10:17;26.50;;;18.80;;